Time;durP1;ratioP1;P1;durP2;ratioP2;P2;SDS_P1;SDS_P2;PMS_P1;PMS_P2;Temp;Humidity;BMP_temperature;BMP_pressure;BME280_temperature;BME280_humidity;BME280_pressure;Samples;Min_cycle;Max_cycle;Signal;HPM_P1;HPM_P2
2023/12/13 00:01:25;;;;;;;15.40;14.90;;;7.60;99.90;;;;;;5081895;28;20490;-74
2023/12/13 00:03:54;;;;;;;15.50;15.00;;;7.60;99.90;;;;;;5084168;28;20448;-73
2023/12/13 00:06:21;;;;;;;15.10;14.60;;;7.50;99.90;;;;;;5076033;28;20466;-73
2023/12/13 00:08:49;;;;;;;15.20;14.70;;;7.60;99.90;;;;;;5091031;28;20450;-72
2023/12/13 00:11:16;;;;;;;14.80;14.30;;;7.60;99.90;;;;;;5077914;28;20458;-73
2023/12/13 00:13:44;;;;;;;15.30;14.80;;;7.70;99.90;;;;;;5083351;28;20459;-72
2023/12/13 00:16:12;;;;;;;15.30;14.80;;;7.80;99.90;;;;;;5098926;28;20495;-72
2023/12/13 00:18:39;;;;;;;14.30;13.90;;;7.70;99.90;;;;;;5089628;28;20452;-72
2023/12/13 00:21:12;;;;;;;15.50;15.00;;;7.70;99.90;;;;;;5075948;28;20510;-73
2023/12/13 00:23:39;;;;;;;15.53;15.03;;;7.80;99.90;;;;;;5082542;28;21090;-73
2023/12/13 00:26:08;;;;;;;15.70;15.20;;;7.80;99.90;;;;;;5088682;28;20462;-70
2023/12/13 00:28:34;;;;;;;15.10;14.60;;;7.80;99.90;;;;;;5090065;28;21043;-73
2023/12/13 00:31:01;;;;;;;15.80;15.30;;;7.90;99.90;;;;;;5083977;28;20480;-72
2023/12/13 00:33:30;;;;;;;15.33;14.83;;;7.90;99.90;;;;;;5085256;28;20450;-71
2023/12/13 00:35:57;;;;;;;15.20;14.70;;;7.90;99.90;;;;;;5082190;28;20463;-73
2023/12/13 00:38:25;;;;;;;15.73;15.23;;;7.90;99.90;;;;;;5083306;28;21099;-70
2023/12/13 00:40:54;;;;;;;16.03;15.53;;;7.90;99.90;;;;;;5089851;28;20530;-73
2023/12/13 00:43:21;;;;;;;15.47;14.97;;;7.90;99.90;;;;;;5082952;28;20466;-72
2023/12/13 00:45:48;;;;;;;15.00;14.50;;;7.90;99.90;;;;;;5081409;28;20478;-72
2023/12/13 00:48:16;;;;;;;15.07;14.57;;;8.00;99.90;;;;;;5087576;28;20459;-71
2023/12/13 00:50:43;;;;;;;16.23;15.63;;;8.00;99.90;;;;;;5077267;28;20474;-72
2023/12/13 00:53:12;;;;;;;14.93;14.43;;;8.10;99.90;;;;;;5084657;28;20959;-70
2023/12/13 00:55:40;;;;;;;14.57;14.17;;;8.10;99.90;;;;;;5071444;28;20462;-70
2023/12/13 00:58:08;;;;;;;14.70;14.20;;;8.20;99.90;;;;;;5079428;28;20466;-71
2023/12/13 01:00:35;;;;;;;14.50;14.10;;;8.10;99.90;;;;;;5079742;28;20811;-73
2023/12/13 01:03:02;;;;;;;13.57;13.17;;;8.10;99.90;;;;;;5089770;28;20457;-74
2023/12/13 01:05:29;;;;;;;14.00;13.60;;;8.10;99.90;;;;;;5081754;28;20459;-70
2023/12/13 01:07:57;;;;;;;14.03;13.63;;;8.00;99.90;;;;;;5083821;28;20462;-73
2023/12/13 01:10:24;;;;;;;14.40;14.00;;;7.90;99.90;;;;;;5076968;28;20463;-73
2023/12/13 01:12:53;;;;;;;14.43;14.03;;;7.90;99.90;;;;;;5078858;28;20472;-71
2023/12/13 01:15:20;;;;;;;14.87;14.37;;;7.90;99.90;;;;;;5084762;28;20463;-72
2023/12/13 01:17:46;;;;;;;14.10;13.70;;;7.80;99.90;;;;;;5090685;28;20454;-72
2023/12/13 01:20:14;;;;;;;14.90;14.40;;;7.70;99.90;;;;;;5085479;28;20466;-73
2023/12/13 01:22:41;;;;;;;15.30;14.80;;;7.70;99.90;;;;;;5089255;28;20458;-73
2023/12/13 01:25:09;;;;;;;15.77;15.27;;;7.80;99.90;;;;;;5089129;28;20474;-73
2023/12/13 01:27:35;;;;;;;16.10;15.60;;;7.80;99.90;;;;;;5081828;28;20483;-71
2023/12/13 01:30:04;;;;;;;15.07;14.57;;;7.90;99.90;;;;;;5078440;28;20463;-73
2023/12/13 01:32:32;;;;;;;14.90;14.40;;;7.90;99.90;;;;;;5079346;28;20811;-73
2023/12/13 01:34:59;;;;;;;15.00;14.50;;;7.90;99.90;;;;;;5074971;28;20464;-73
2023/12/13 01:37:26;;;;;;;14.80;14.30;;;7.90;99.90;;;;;;5082146;28;20524;-70
2023/12/13 01:39:56;;;;;;;15.10;14.60;;;7.80;99.90;;;;;;5086091;28;20465;-71
2023/12/13 01:42:23;;;;;;;15.23;14.73;;;7.90;99.90;;;;;;5075467;28;20532;-73
2023/12/13 01:44:50;;;;;;;15.23;14.73;;;7.90;99.90;;;;;;5078758;28;20476;-73
2023/12/13 01:47:19;;;;;;;15.30;14.80;;;7.90;99.90;;;;;;5092341;28;20450;-72
2023/12/13 01:49:46;;;;;;;15.70;15.20;;;8.00;99.90;;;;;;5089123;28;20461;-72
2023/12/13 01:52:16;;;;;;;15.80;15.30;;;8.00;99.90;;;;;;5073681;28;20452;-73
2023/12/13 01:54:46;;;;;;;15.57;15.07;;;8.00;99.90;;;;;;5082707;28;20456;-72
2023/12/13 01:57:14;;;;;;;15.33;14.83;;;8.10;99.90;;;;;;5080037;28;20454;-72
2023/12/13 01:59:42;;;;;;;15.50;15.00;;;8.20;99.90;;;;;;5062695;28;20642;-72
2023/12/13 02:02:11;;;;;;;15.50;15.00;;;8.20;99.90;;;;;;5083652;28;20873;-73
2023/12/13 02:04:41;;;;;;;14.97;14.47;;;8.20;99.90;;;;;;5070517;28;20467;-71
2023/12/13 02:07:08;;;;;;;15.40;14.90;;;8.30;99.90;;;;;;5089243;28;20457;-71
2023/12/13 02:09:35;;;;;;;15.20;14.70;;;8.30;99.90;;;;;;5084142;28;20860;-71
2023/12/13 02:12:02;;;;;;;15.30;14.80;;;8.30;99.90;;;;;;5082918;28;20463;-71
2023/12/13 02:14:30;;;;;;;15.50;15.00;;;8.40;99.90;;;;;;5085200;28;20468;-73
2023/12/13 02:16:56;;;;;;;15.37;14.87;;;8.40;99.90;;;;;;5088932;28;20455;-72
2023/12/13 02:19:24;;;;;;;14.43;14.03;;;8.40;99.90;;;;;;5079276;28;20466;-73
2023/12/13 02:21:53;;;;;;;13.80;13.40;;;8.50;99.90;;;;;;5080158;28;20495;-74
2023/12/13 02:24:24;;;;;;;14.23;13.83;;;8.50;99.90;;;;;;5083315;28;20517;-74
2023/12/13 02:26:54;;;;;;;14.70;14.20;;;8.50;99.90;;;;;;5086954;28;20457;-71
2023/12/13 02:29:21;;;;;;;14.50;14.10;;;8.60;99.90;;;;;;5088148;28;20468;-71
2023/12/13 02:31:48;;;;;;;14.73;14.23;;;8.60;99.90;;;;;;5072805;28;20462;-73
2023/12/13 02:34:15;;;;;;;14.83;14.33;;;8.60;99.90;;;;;;5085524;28;20458;-71
2023/12/13 02:36:48;;;;;;;14.67;14.17;;;8.60;99.90;;;;;;5088967;28;20520;-73
2023/12/13 02:39:15;;;;;;;14.17;13.77;;;8.70;99.90;;;;;;5076749;28;20875;-74
2023/12/13 02:41:44;;;;;;;14.90;14.40;;;8.70;99.90;;;;;;5079278;28;20804;-72
2023/12/13 02:44:11;;;;;;;15.30;14.80;;;8.60;99.90;;;;;;5088239;28;20465;-71
2023/12/13 02:46:39;;;;;;;15.77;15.27;;;8.70;99.90;;;;;;5093691;28;20461;-71
2023/12/13 02:49:06;;;;;;;15.20;14.70;;;8.70;99.90;;;;;;5076798;28;20455;-73
2023/12/13 02:51:33;;;;;;;15.53;15.03;;;8.70;99.90;;;;;;5083554;28;20450;-72
2023/12/13 02:54:00;;;;;;;15.03;14.53;;;8.70;99.90;;;;;;5087777;28;20464;-72
2023/12/13 02:56:29;;;;;;;15.60;15.10;;;8.70;99.90;;;;;;5088837;28;20520;-70
2023/12/13 02:58:58;;;;;;;15.47;14.97;;;8.80;99.90;;;;;;5074380;28;20550;-73
2023/12/13 03:01:25;;;;;;;17.80;17.10;;;8.80;99.90;;;;;;5081729;28;20482;-70
2023/12/13 03:03:52;;;;;;;16.40;15.80;;;8.80;99.90;;;;;;5085102;28;20566;-71
2023/12/13 03:06:19;;;;;;;16.10;15.50;;;8.80;99.90;;;;;;5071267;28;20475;-72
2023/12/13 03:08:47;;;;;;;15.50;15.00;;;8.90;99.90;;;;;;5085434;28;20972;-73
2023/12/13 03:11:14;;;;;;;15.30;14.80;;;8.90;99.90;;;;;;5081037;28;20478;-71
2023/12/13 03:13:41;;;;;;;14.83;14.33;;;8.90;99.90;;;;;;5080600;28;20462;-73
2023/12/13 03:16:09;;;;;;;14.93;14.43;;;8.90;99.90;;;;;;5106210;28;21198;-71
2023/12/13 03:18:36;;;;;;;15.10;14.60;;;8.90;99.90;;;;;;5089045;28;20948;-71
2023/12/13 03:21:03;;;;;;;15.43;14.93;;;8.90;99.90;;;;;;5079097;28;20564;-70
2023/12/13 03:23:30;;;;;;;16.80;16.20;;;8.90;99.90;;;;;;5091711;28;20442;-72
2023/12/13 03:25:58;;;;;;;15.63;15.13;;;8.90;99.90;;;;;;5087445;28;20490;-73
2023/12/13 03:28:25;;;;;;;15.10;14.60;;;8.90;99.90;;;;;;5082844;28;20975;-74
2023/12/13 03:30:52;;;;;;;14.70;14.20;;;8.90;99.90;;;;;;5085636;28;20531;-73
2023/12/13 03:33:21;;;;;;;14.40;14.00;;;8.90;99.90;;;;;;5080165;28;20471;-72
2023/12/13 03:35:47;;;;;;;14.20;13.80;;;8.90;99.90;;;;;;5090540;28;20465;-73
2023/12/13 03:38:14;;;;;;;14.10;13.70;;;8.90;99.90;;;;;;5087240;28;20508;-72
2023/12/13 03:40:41;;;;;;;13.67;13.27;;;8.90;99.90;;;;;;5090799;28;20511;-71
2023/12/13 03:43:07;;;;;;;14.30;13.90;;;8.90;99.90;;;;;;5076925;28;20487;-72
2023/12/13 03:45:35;;;;;;;13.57;13.17;;;8.90;99.90;;;;;;5090732;28;20458;-71
2023/12/13 03:48:03;;;;;;;13.17;12.77;;;8.90;99.90;;;;;;5085195;28;20463;-71
2023/12/13 03:50:31;;;;;;;13.60;13.20;;;8.90;99.90;;;;;;5082602;28;20502;-72
2023/12/13 03:52:58;;;;;;;13.70;13.30;;;8.90;99.90;;;;;;5087437;28;20455;-71
2023/12/13 03:55:25;;;;;;;13.23;12.83;;;8.90;99.90;;;;;;5079304;28;20460;-74
2023/12/13 03:57:52;;;;;;;13.90;13.50;;;8.90;99.90;;;;;;5079834;28;20463;-74
2023/12/13 04:00:19;;;;;;;13.87;13.47;;;9.00;99.90;;;;;;5087918;28;20913;-74
2023/12/13 04:02:46;;;;;;;14.10;13.70;;;9.00;99.90;;;;;;5076370;28;20486;-71
2023/12/13 04:05:14;;;;;;;15.00;14.50;;;9.00;99.90;;;;;;5091380;28;20458;-73
2023/12/13 04:07:42;;;;;;;14.00;13.60;;;9.00;99.90;;;;;;5090037;28;20984;-73
2023/12/13 04:10:10;;;;;;;13.70;13.30;;;9.00;99.90;;;;;;5074757;28;21241;-73
2023/12/13 04:12:37;;;;;;;14.93;14.47;;;9.00;99.90;;;;;;5075230;28;20470;-73
2023/12/13 04:15:05;;;;;;;15.10;14.60;;;9.00;99.90;;;;;;5076218;28;20916;-72
2023/12/13 04:17:32;;;;;;;14.13;13.73;;;9.00;99.90;;;;;;5089671;28;20882;-73
2023/12/13 04:19:59;;;;;;;14.07;13.67;;;9.00;99.90;;;;;;5088665;28;20884;-72
2023/12/13 04:22:26;;;;;;;14.03;13.63;;;9.00;99.90;;;;;;5075833;28;20481;-74
2023/12/13 04:24:57;;;;;;;14.23;13.83;;;9.00;99.90;;;;;;5089818;28;20855;-73
2023/12/13 04:27:24;;;;;;;15.50;15.00;;;9.10;99.90;;;;;;5087909;28;20459;-71
2023/12/13 04:29:53;;;;;;;14.40;14.00;;;9.10;99.90;;;;;;5082490;28;20467;-72
2023/12/13 04:32:20;;;;;;;14.13;13.73;;;9.10;99.90;;;;;;5084917;28;20470;-72
2023/12/13 04:34:47;;;;;;;14.30;13.90;;;9.10;99.90;;;;;;5086759;28;22495;-71
2023/12/13 04:37:14;;;;;;;13.73;13.33;;;9.10;99.90;;;;;;5077559;28;20538;-74
2023/12/13 04:39:41;;;;;;;14.10;13.70;;;9.00;99.90;;;;;;5083562;28;20459;-71
2023/12/13 04:42:10;;;;;;;13.97;13.57;;;9.00;99.90;;;;;;5089087;28;20543;-73
2023/12/13 04:44:36;;;;;;;14.03;13.63;;;9.00;99.90;;;;;;5083649;28;20497;-72
2023/12/13 04:47:03;;;;;;;15.60;15.10;;;9.00;99.90;;;;;;5093366;28;20516;-70
2023/12/13 04:49:30;;;;;;;14.33;13.93;;;9.00;99.90;;;;;;5081432;28;20466;-75
2023/12/13 04:51:57;;;;;;;14.57;14.10;;;9.10;99.90;;;;;;5090420;28;20536;-74
2023/12/13 04:54:24;;;;;;;13.90;13.50;;;9.00;99.90;;;;;;5087010;28;20519;-70
2023/12/13 04:56:50;;;;;;;14.40;13.90;;;9.00;99.90;;;;;;5079325;28;20458;-73
2023/12/13 04:59:19;;;;;;;13.53;13.13;;;9.00;99.90;;;;;;5089071;28;20862;-70
2023/12/13 05:01:47;;;;;;;14.17;13.77;;;9.00;99.90;;;;;;5076536;28;20501;-75
2023/12/13 05:04:15;;;;;;;13.93;13.53;;;9.00;99.90;;;;;;5081888;28;20469;-72
2023/12/13 05:06:42;;;;;;;14.80;14.30;;;9.00;99.90;;;;;;5087246;28;20519;-72
2023/12/13 05:09:10;;;;;;;14.90;14.40;;;9.00;99.90;;;;;;5073847;28;20455;-71
2023/12/13 05:11:37;;;;;;;14.80;14.30;;;8.90;99.90;;;;;;5076147;28;20832;-71
2023/12/13 05:14:04;;;;;;;14.67;14.23;;;8.90;99.90;;;;;;5084961;28;20474;-72
2023/12/13 05:16:32;;;;;;;14.83;14.33;;;8.90;99.90;;;;;;5084861;28;20507;-74
2023/12/13 05:19:00;;;;;;;14.50;14.10;;;8.90;99.90;;;;;;5079416;28;20520;-72
2023/12/13 05:21:26;;;;;;;14.37;13.97;;;8.90;99.90;;;;;;5088994;28;20462;-74
2023/12/13 05:23:53;;;;;;;15.17;14.67;;;8.90;99.90;;;;;;5083998;28;20463;-71
2023/12/13 05:26:20;;;;;;;14.40;13.93;;;8.90;99.90;;;;;;5081505;28;20467;-74
2023/12/13 05:28:47;;;;;;;15.30;14.80;;;8.90;99.90;;;;;;5087820;28;20912;-73
2023/12/13 05:31:24;;;;;;;15.57;15.07;;;8.90;99.90;;;;;;5088408;28;20818;-73
2023/12/13 05:33:52;;;;;;;15.77;15.27;;;8.80;99.90;;;;;;5094818;28;20959;-75
2023/12/13 05:36:20;;;;;;;15.63;15.13;;;8.90;99.90;;;;;;5082671;28;20469;-71
2023/12/13 05:38:47;;;;;;;15.63;15.13;;;8.90;99.90;;;;;;5074328;28;21096;-73
2023/12/13 05:41:14;;;;;;;15.57;15.07;;;8.90;99.90;;;;;;5075630;28;20463;-71
2023/12/13 05:43:40;;;;;;;15.63;15.13;;;8.90;99.90;;;;;;5083950;28;20495;-72
2023/12/13 05:46:08;;;;;;;15.60;15.10;;;8.90;99.90;;;;;;5082349;28;20461;-72
2023/12/13 05:48:35;;;;;;;14.97;14.47;;;8.90;99.90;;;;;;5085258;28;20487;-73
2023/12/13 05:51:03;;;;;;;15.77;15.27;;;8.80;99.90;;;;;;5078968;28;20466;-71
2023/12/13 05:53:31;;;;;;;15.70;15.20;;;8.80;99.90;;;;;;5087013;28;20462;-71
2023/12/13 05:55:59;;;;;;;15.33;14.83;;;8.80;99.90;;;;;;5079953;28;20491;-75
2023/12/13 05:58:26;;;;;;;15.30;14.80;;;8.70;99.90;;;;;;5087535;28;20827;-72
2023/12/13 06:00:53;;;;;;;16.03;15.43;;;8.70;99.90;;;;;;5087790;28;20892;-75
2023/12/13 06:03:21;;;;;;;15.97;15.37;;;8.70;99.90;;;;;;5074324;28;20862;-74
2023/12/13 06:05:48;;;;;;;16.60;16.00;;;8.70;99.90;;;;;;5088076;28;20447;-74
2023/12/13 06:08:17;;;;;;;15.63;15.13;;;8.60;99.90;;;;;;5087401;28;20786;-74
2023/12/13 06:10:44;;;;;;;15.70;15.20;;;8.60;99.90;;;;;;5075247;28;20465;-73
2023/12/13 06:13:11;;;;;;;15.50;15.00;;;8.60;99.90;;;;;;5080655;28;20519;-75
2023/12/13 06:15:38;;;;;;;15.10;14.60;;;8.60;99.90;;;;;;5084999;28;20473;-75
2023/12/13 06:18:06;;;;;;;14.80;14.30;;;8.50;99.90;;;;;;5088196;28;20461;-74
2023/12/13 06:20:33;;;;;;;13.80;13.40;;;8.50;99.90;;;;;;5078351;28;20503;-72
2023/12/13 06:23:00;;;;;;;14.97;14.47;;;8.50;99.90;;;;;;5086268;28;20492;-74
2023/12/13 06:25:29;;;;;;;15.30;14.80;;;8.50;99.90;;;;;;5077139;28;20494;-72
2023/12/13 06:27:56;;;;;;;15.33;14.83;;;8.50;99.90;;;;;;5086812;28;20480;-72
2023/12/13 06:30:23;;;;;;;15.73;15.17;;;8.60;99.90;;;;;;5087029;28;20462;-74
2023/12/13 06:32:51;;;;;;;14.90;14.40;;;8.60;99.90;;;;;;5080344;28;20565;-72
2023/12/13 06:35:17;;;;;;;16.10;15.50;;;8.60;99.90;;;;;;5073714;28;20460;-71
2023/12/13 06:37:45;;;;;;;15.60;15.10;;;8.60;99.90;;;;;;5074011;28;20491;-72
2023/12/13 06:40:14;;;;;;;15.87;15.27;;;8.60;99.90;;;;;;5086804;28;20466;-73
2023/12/13 06:42:42;;;;;;;16.33;15.73;;;8.60;99.90;;;;;;5083125;28;20501;-75
2023/12/13 06:45:10;;;;;;;17.23;16.53;;;8.60;99.90;;;;;;5093364;28;20478;-72
2023/12/13 06:47:37;;;;;;;15.87;15.27;;;8.60;99.90;;;;;;5086325;28;20467;-74
2023/12/13 06:50:05;;;;;;;17.10;16.40;;;8.60;99.90;;;;;;5086629;28;20473;-73
2023/12/13 06:52:32;;;;;;;16.70;16.00;;;8.50;99.90;;;;;;5084568;28;20459;-73
2023/12/13 06:54:59;;;;;;;17.20;16.50;;;8.50;99.90;;;;;;5094211;28;20906;-74
2023/12/13 06:57:26;;;;;;;17.50;16.80;;;8.50;99.90;;;;;;5090241;28;20557;-73
2023/12/13 06:59:54;;;;;;;17.30;16.60;;;8.50;99.90;;;;;;5093020;28;20515;-73
2023/12/13 07:02:21;;;;;;;16.20;15.60;;;8.50;99.90;;;;;;5093005;28;20483;-70
2023/12/13 07:04:48;;;;;;;17.33;16.63;;;8.50;99.90;;;;;;5091311;28;21339;-71
2023/12/13 07:07:16;;;;;;;17.13;16.43;;;8.60;99.90;;;;;;5079413;28;20798;-73
2023/12/13 07:09:45;;;;;;;16.90;16.20;;;8.60;99.90;;;;;;5081794;28;21321;-70
2023/12/13 07:12:12;;;;;;;17.30;16.60;;;8.50;99.90;;;;;;5089396;28;20457;-72
2023/12/13 07:14:39;;;;;;;18.50;17.70;;;8.50;99.90;;;;;;5090965;28;20461;-72
2023/12/13 07:17:07;;;;;;;18.40;17.60;;;8.50;99.90;;;;;;5097495;28;20451;-74
2023/12/13 07:19:34;;;;;;;18.07;17.27;;;8.50;99.90;;;;;;5089965;28;20466;-71
2023/12/13 07:22:01;;;;;;;18.40;17.60;;;8.50;99.90;;;;;;5090596;28;20466;-72
2023/12/13 07:24:28;;;;;;;18.20;17.40;;;8.40;99.90;;;;;;5077966;28;20494;-71
2023/12/13 07:26:55;;;;;;;18.27;17.47;;;8.40;99.90;;;;;;5094564;28;20463;-71
2023/12/13 07:29:24;;;;;;;18.50;17.70;;;8.40;99.90;;;;;;5093743;28;20482;-73
2023/12/13 07:31:51;;;;;;;17.90;17.20;;;8.50;99.90;;;;;;5093284;28;20545;-72
2023/12/13 07:34:20;;;;;;;17.87;17.17;;;8.40;99.90;;;;;;5086095;28;20846;-73
2023/12/13 07:36:49;;;;;;;19.13;18.30;;;8.40;99.90;;;;;;5092474;28;20818;-73
2023/12/13 07:39:17;;;;;;;19.43;18.53;;;8.40;99.90;;;;;;5079919;28;20512;-70
2023/12/13 07:41:45;;;;;;;18.27;17.47;;;8.50;99.90;;;;;;5081160;28;20475;-73
2023/12/13 07:44:13;;;;;;;18.77;17.97;;;8.40;99.90;;;;;;5077172;28;20589;-75
2023/12/13 07:46:39;;;;;;;19.40;18.50;;;8.40;99.90;;;;;;5079240;28;20886;-73
2023/12/13 07:49:08;;;;;;;18.57;17.77;;;8.40;99.90;;;;;;5081174;28;20983;-73
2023/12/13 07:51:36;;;;;;;19.00;18.20;;;8.40;99.90;;;;;;5080711;28;20466;-73
2023/12/13 07:54:03;;;;;;;17.90;17.10;;;8.40;99.90;;;;;;5080991;28;20508;-71
2023/12/13 07:56:30;;;;;;;18.93;18.03;;;8.40;99.90;;;;;;5073035;28;21045;-74
2023/12/13 07:58:57;;;;;;;18.60;17.80;;;8.40;99.90;;;;;;5078509;28;20466;-72
2023/12/13 08:01:23;;;;;;;18.50;17.70;;;8.40;99.90;;;;;;5078980;28;20474;-72
2023/12/13 08:03:51;;;;;;;17.53;16.83;;;8.40;99.90;;;;;;5076700;28;20526;-71
2023/12/13 08:06:18;;;;;;;17.03;16.33;;;8.30;99.90;;;;;;5075839;28;20463;-72
2023/12/13 08:08:47;;;;;;;17.40;16.60;;;8.30;99.90;;;;;;5069461;28;20471;-73
2023/12/13 08:11:15;;;;;;;17.70;16.90;;;8.30;99.90;;;;;;5073379;28;20470;-70
2023/12/13 08:13:42;;;;;;;17.57;16.77;;;8.40;99.90;;;;;;5074374;28;20607;-71
2023/12/13 08:16:09;;;;;;;16.97;16.27;;;8.40;99.90;;;;;;5076117;28;20547;-71
2023/12/13 08:18:36;;;;;;;18.07;17.27;;;8.40;99.90;;;;;;5080246;28;20455;-72
2023/12/13 08:21:06;;;;;;;17.53;16.73;;;8.50;99.90;;;;;;5078924;28;20469;-73
2023/12/13 08:23:32;;;;;;;17.90;17.10;;;8.50;99.90;;;;;;5080516;28;20488;-74
2023/12/13 08:26:01;;;;;;;18.10;17.30;;;8.60;99.90;;;;;;5080381;28;20498;-73
2023/12/13 08:28:28;;;;;;;18.00;17.20;;;8.70;99.90;;;;;;5075751;28;20506;-71
2023/12/13 08:30:54;;;;;;;18.00;17.20;;;8.80;99.90;;;;;;5079779;28;20882;-72
2023/12/13 08:33:21;;;;;;;18.57;17.67;;;8.80;99.90;;;;;;5075115;28;22228;-71
2023/12/13 08:35:48;;;;;;;18.20;17.40;;;8.80;99.90;;;;;;5078744;28;20549;-71
2023/12/13 08:38:15;;;;;;;17.80;17.00;;;8.80;99.90;;;;;;5077928;28;20463;-71
2023/12/13 08:40:42;;;;;;;17.60;16.80;;;8.90;99.90;;;;;;5081563;28;22094;-73
2023/12/13 08:43:10;;;;;;;17.10;16.40;;;8.80;99.90;;;;;;5080372;28;20494;-71
2023/12/13 08:45:37;;;;;;;16.87;16.17;;;8.90;99.90;;;;;;5075622;28;20477;-74
2023/12/13 08:48:04;;;;;;;17.30;16.50;;;8.90;99.90;;;;;;5068743;28;20476;-73
2023/12/13 08:50:31;;;;;;;17.40;16.60;;;8.90;99.90;;;;;;5078024;28;20868;-71
2023/12/13 08:52:58;;;;;;;16.90;16.20;;;9.00;99.90;;;;;;5076234;28;20469;-74
2023/12/13 08:55:25;;;;;;;17.57;16.77;;;8.90;99.90;;;;;;5077633;28;20952;-72
2023/12/13 08:57:52;;;;;;;17.80;17.00;;;9.00;99.90;;;;;;5075319;28;20452;-72
2023/12/13 09:00:21;;;;;;;17.70;16.90;;;9.00;99.90;;;;;;5075344;28;20502;-73
2023/12/13 09:02:48;;;;;;;17.70;16.90;;;9.00;99.90;;;;;;5076263;28;20563;-73
2023/12/13 09:05:15;;;;;;;17.30;16.50;;;8.90;99.90;;;;;;5074992;28;20545;-71
2023/12/13 09:07:42;;;;;;;17.93;17.13;;;9.00;99.90;;;;;;5069320;28;21173;-72
2023/12/13 09:10:09;;;;;;;18.00;17.20;;;9.10;99.90;;;;;;5077188;28;20477;-74
2023/12/13 09:12:36;;;;;;;17.97;17.17;;;9.30;99.90;;;;;;5076325;28;20502;-73
2023/12/13 09:15:06;;;;;;;17.70;16.90;;;9.30;99.90;;;;;;5077155;28;20467;-73
2023/12/13 09:17:36;;;;;;;17.53;16.73;;;9.40;99.90;;;;;;5073407;28;20470;-73
2023/12/13 09:20:02;;;;;;;17.60;16.80;;;9.50;99.90;;;;;;5075171;28;20984;-74
2023/12/13 09:22:30;;;;;;;16.73;16.03;;;9.50;99.90;;;;;;5072418;28;21005;-71
2023/12/13 09:24:58;;;;;;;16.70;16.00;;;9.50;99.90;;;;;;5076451;28;20505;-73
2023/12/13 09:27:26;;;;;;;16.70;16.00;;;9.40;99.90;;;;;;5074729;28;20470;-72
2023/12/13 09:29:52;;;;;;;16.37;15.67;;;9.40;99.90;;;;;;5074638;28;20533;-74
2023/12/13 09:32:20;;;;;;;16.73;16.03;;;9.50;99.90;;;;;;5073044;28;20469;-72
2023/12/13 09:34:48;;;;;;;16.87;16.17;;;9.60;99.90;;;;;;5076810;28;20467;-71
2023/12/13 09:37:15;;;;;;;16.87;16.17;;;9.70;99.90;;;;;;5073627;28;20968;-74
2023/12/13 09:39:43;;;;;;;16.53;15.83;;;9.70;99.90;;;;;;5073688;28;20456;-72
2023/12/13 09:42:09;;;;;;;16.80;16.10;;;9.80;99.90;;;;;;5075692;28;20556;-75
2023/12/13 09:44:39;;;;;;;16.50;15.80;;;9.90;99.90;;;;;;5077586;28;20492;-72
2023/12/13 09:47:07;;;;;;;16.17;15.57;;;9.90;99.90;;;;;;5077906;28;20468;-74
2023/12/13 09:49:35;;;;;;;16.80;16.10;;;9.90;99.90;;;;;;5071754;28;20467;-72
2023/12/13 09:52:06;;;;;;;16.87;16.17;;;9.90;99.90;;;;;;5075728;28;20523;-71
2023/12/13 09:54:35;;;;;;;17.10;16.40;;;9.90;99.90;;;;;;5073148;28;20462;-71
2023/12/13 09:57:03;;;;;;;17.10;16.40;;;10.00;99.90;;;;;;5075745;28;20469;-72
2023/12/13 09:59:30;;;;;;;17.13;16.43;;;10.10;99.90;;;;;;5076695;28;20463;-72
2023/12/13 10:01:57;;;;;;;17.10;16.40;;;10.10;99.90;;;;;;5074475;28;20846;-72
2023/12/13 10:04:27;;;;;;;17.90;17.10;;;10.10;99.90;;;;;;5073875;28;20859;-72
2023/12/13 10:06:55;;;;;;;17.67;16.87;;;10.10;99.90;;;;;;5072789;28;20458;-73
2023/12/13 10:09:26;;;;;;;18.20;17.40;;;10.30;99.90;;;;;;5072520;28;20468;-71
2023/12/13 10:11:55;;;;;;;17.93;17.13;;;10.40;99.90;;;;;;5076555;28;20465;-71
2023/12/13 10:14:22;;;;;;;18.00;17.20;;;10.50;99.90;;;;;;5074499;28;22276;-74
2023/12/13 10:16:49;;;;;;;18.00;17.20;;;10.50;99.90;;;;;;5073277;28;20802;-74
2023/12/13 10:19:17;;;;;;;17.80;17.00;;;10.40;99.90;;;;;;5075347;28;20539;-73
2023/12/13 10:21:46;;;;;;;16.57;15.87;;;10.60;99.90;;;;;;5073856;28;20547;-71
2023/12/13 10:24:13;;;;;;;16.43;15.73;;;10.40;99.90;;;;;;5070341;28;20901;-71
2023/12/13 10:26:42;;;;;;;16.63;15.93;;;10.40;99.90;;;;;;5075870;28;20473;-71
2023/12/13 10:29:09;;;;;;;16.30;15.60;;;10.40;99.90;;;;;;5075265;28;20479;-71
2023/12/13 10:31:37;;;;;;;16.20;15.50;;;10.20;99.90;;;;;;5071029;28;20512;-70
2023/12/13 10:34:04;;;;;;;16.93;16.23;;;10.30;99.90;;;;;;5068831;28;20549;-70
2023/12/13 10:36:30;;;;;;;16.40;15.70;;;10.10;99.90;;;;;;5072344;28;20530;-70
2023/12/13 10:39:00;;;;;;;16.80;16.10;;;10.20;99.90;;;;;;5073558;28;20471;-73
2023/12/13 10:41:28;;;;;;;16.70;16.00;;;10.30;99.90;;;;;;5076803;28;20461;-72
2023/12/13 10:43:58;;;;;;;16.60;15.90;;;10.40;99.90;;;;;;5074977;28;20485;-72
2023/12/13 10:46:27;;;;;;;16.33;15.73;;;10.50;99.90;;;;;;5072682;28;20967;-73
2023/12/13 10:48:55;;;;;;;16.43;15.80;;;10.50;99.90;;;;;;5071737;28;20969;-73
2023/12/13 10:51:23;;;;;;;17.10;16.40;;;10.70;99.90;;;;;;5073638;28;20471;-70
2023/12/13 10:53:50;;;;;;;16.70;16.00;;;10.80;99.90;;;;;;5073693;28;20468;-74
2023/12/13 10:56:17;;;;;;;16.37;15.67;;;11.00;99.90;;;;;;5075126;28;20457;-71
2023/12/13 10:58:45;;;;;;;16.67;15.97;;;11.10;99.90;;;;;;5073239;28;20473;-71
2023/12/13 11:01:14;;;;;;;15.90;15.30;;;11.10;99.90;;;;;;5075362;28;20549;-71
2023/12/13 11:03:44;;;;;;;15.17;14.57;;;11.10;99.90;;;;;;5072766;28;20491;-71
2023/12/13 11:06:14;;;;;;;14.30;13.80;;;11.10;99.90;;;;;;5071829;28;20487;-73
2023/12/13 11:08:43;;;;;;;14.90;14.40;;;11.20;99.90;;;;;;5074674;28;20465;-71
2023/12/13 11:11:12;;;;;;;14.63;14.13;;;11.30;99.90;;;;;;5073822;28;20453;-70
2023/12/13 11:13:46;;;;;;;14.70;14.20;;;11.40;99.90;;;;;;5071772;28;20480;-72
2023/12/13 11:16:20;;;;;;;14.30;13.80;;;11.40;99.90;;;;;;5075914;28;20569;-70
2023/12/13 11:18:49;;;;;;;15.07;14.53;;;11.50;99.90;;;;;;5075509;28;20474;-71
2023/12/13 11:21:25;;;;;;;14.50;14.00;;;11.60;99.90;;;;;;5076558;28;21047;-71
2023/12/13 11:23:52;;;;;;;14.30;13.80;;;11.50;99.90;;;;;;5070685;28;20589;-72
2023/12/13 11:26:22;;;;;;;14.07;13.57;;;11.50;99.90;;;;;;5075741;28;20999;-71
2023/12/13 11:28:51;;;;;;;14.07;13.57;;;11.70;99.90;;;;;;5076321;28;20487;-72
2023/12/13 11:31:23;;;;;;;13.73;13.23;;;11.70;99.90;;;;;;5079904;28;20458;-71
2023/12/13 11:33:51;;;;;;;14.10;13.60;;;11.90;99.90;;;;;;5072793;28;20549;-73
2023/12/13 11:36:22;;;;;;;14.10;13.60;;;11.90;99.90;;;;;;5078970;28;20454;-71
2023/12/13 11:38:52;;;;;;;14.10;13.60;;;11.80;99.90;;;;;;5075666;28;20469;-74
2023/12/13 11:41:19;;;;;;;14.13;13.63;;;11.90;99.90;;;;;;5074454;28;20515;-71
2023/12/13 11:43:47;;;;;;;13.70;13.20;;;11.90;99.90;;;;;;5078210;28;20853;-71
2023/12/13 11:46:15;;;;;;;14.30;13.80;;;12.10;99.90;;;;;;5077346;28;20470;-72
2023/12/13 11:48:45;;;;;;;13.47;12.97;;;12.20;99.90;;;;;;5075649;28;20501;-71
2023/12/13 11:51:12;;;;;;;14.07;13.57;;;12.70;99.90;;;;;;5074094;28;20540;-71
2023/12/13 11:53:39;;;;;;;14.70;14.20;;;13.00;99.90;;;;;;5082125;28;20470;-71
2023/12/13 11:56:11;;;;;;;14.23;13.73;;;13.30;99.90;;;;;;5075003;28;20471;-73
2023/12/13 11:58:38;;;;;;;14.10;13.60;;;13.70;99.90;;;;;;5078083;28;20470;-71
2023/12/13 12:01:06;;;;;;;14.50;14.00;;;13.60;99.90;;;;;;5075612;28;20838;-71
2023/12/13 12:03:34;;;;;;;14.47;13.97;;;13.40;99.90;;;;;;5077090;28;20465;-71
2023/12/13 12:06:02;;;;;;;14.23;13.73;;;13.50;99.90;;;;;;5077242;28;20993;-71
2023/12/13 12:08:29;;;;;;;14.77;14.17;;;13.50;99.90;;;;;;5074784;28;20474;-70
2023/12/13 12:10:56;;;;;;;15.23;14.63;;;13.10;99.90;;;;;;5078533;28;20458;-71
2023/12/13 12:13:23;;;;;;;14.70;14.17;;;13.10;99.90;;;;;;5076695;28;20554;-70
2023/12/13 12:15:52;;;;;;;14.40;13.90;;;12.90;99.90;;;;;;5076189;28;20474;-72
2023/12/13 12:18:19;;;;;;;14.37;13.87;;;12.70;99.90;;;;;;5074875;28;20467;-71
2023/12/13 12:20:47;;;;;;;14.50;14.00;;;12.60;99.90;;;;;;5075241;28;20492;-71
2023/12/13 12:23:18;;;;;;;13.83;13.33;;;12.50;99.90;;;;;;5075507;28;20463;-71
2023/12/13 12:25:45;;;;;;;14.10;13.60;;;13.00;99.90;;;;;;5077972;28;20531;-71
2023/12/13 12:28:13;;;;;;;14.00;13.50;;;13.40;99.90;;;;;;5077455;28;20483;-70
2023/12/13 12:30:43;;;;;;;13.63;13.20;;;13.40;99.90;;;;;;5078994;28;20470;-71
2023/12/13 12:33:09;;;;;;;13.87;13.37;;;13.10;99.90;;;;;;5075423;28;20461;-72
2023/12/13 12:35:36;;;;;;;14.23;13.73;;;13.10;99.90;;;;;;5074531;28;20988;-71
2023/12/13 12:38:08;;;;;;;13.90;13.40;;;13.00;99.90;;;;;;5073994;28;20475;-70